Map

Track Data

SID SEASON NUMBER BASIN SUBBASIN NAME ISO_TIME NATURE LAT LON WMO_WIND WMO_PRES WMO_AGENCY TRACK_TYPE DIST2LAND LANDFALL IFLAG USA_AGENCY USA_ATCF_ID USA_LAT USA_LON USA_RECORD USA_STATUS USA_WIND USA_PRES USA_SSHS USA_R34_NE USA_R34_SE USA_R34_SW USA_R34_NW USA_R50_NE USA_R50_SE USA_R50_SW USA_R50_NW USA_R64_NE USA_R64_SE USA_R64_SW USA_R64_NW USA_POCI USA_ROCI USA_RMW USA_EYE TOKYO_LAT TOKYO_LON TOKYO_GRADE TOKYO_WIND TOKYO_PRES TOKYO_R50_DIR TOKYO_R50_LONG TOKYO_R50_SHORT TOKYO_R30_DIR TOKYO_R30_LONG TOKYO_R30_SHORT TOKYO_LAND CMA_LAT CMA_LON CMA_CAT CMA_WIND CMA_PRES HKO_LAT HKO_LON HKO_CAT HKO_WIND HKO_PRES NEWDELHI_LAT NEWDELHI_LON NEWDELHI_GRADE NEWDELHI_WIND NEWDELHI_PRES NEWDELHI_CI NEWDELHI_DP NEWDELHI_POCI REUNION_LAT REUNION_LON REUNION_TYPE REUNION_WIND REUNION_PRES REUNION_TNUM REUNION_CI REUNION_RMW REUNION_R34_NE REUNION_R34_SE REUNION_R34_SW REUNION_R34_NW REUNION_R50_NE REUNION_R50_SE REUNION_R50_SW REUNION_R50_NW REUNION_R64_NE REUNION_R64_SE REUNION_R64_SW REUNION_R64_NW BOM_LAT BOM_LON BOM_TYPE BOM_WIND BOM_PRES BOM_TNUM BOM_CI BOM_RMW BOM_R34_NE BOM_R34_SE BOM_R34_SW BOM_R34_NW BOM_R50_NE BOM_R50_SE BOM_R50_SW BOM_R50_NW BOM_R64_NE BOM_R64_SE BOM_R64_SW BOM_R64_NW BOM_ROCI BOM_POCI BOM_EYE BOM_POS_METHOD BOM_PRES_METHOD NADI_LAT NADI_LON NADI_CAT NADI_WIND NADI_PRES WELLINGTON_LAT WELLINGTON_LON WELLINGTON_WIND WELLINGTON_PRES DS824_LAT DS824_LON DS824_STAGE DS824_WIND DS824_PRES TD9636_LAT TD9636_LON TD9636_STAGE TD9636_WIND TD9636_PRES TD9635_LAT TD9635_LON TD9635_WIND TD9635_PRES TD9635_ROCI NEUMANN_LAT NEUMANN_LON NEUMANN_CLASS NEUMANN_WIND NEUMANN_PRES MLC_LAT MLC_LON MLC_CLASS MLC_WIND MLC_PRES USA_GUST BOM_GUST BOM_GUST_PER REUNION_GUST REUNION_GUST_PER USA_SEAHGT USA_SEARAD_NE USA_SEARAD_SE USA_SEARAD_SW USA_SEARAD_NW STORM_SPEED STORM_DIR
1994345N06165 1994 114 WP MM AXEL 1994-12-10 18:00:00 NR 5.90000 164.600 main 1648 1627 O_____________ jtwc_wp WP381994 5.90000 164.600 15 -1 11 275
1994345N06165 1994 114 WP MM AXEL 1994-12-10 21:00:00 NR 5.95011 164.050 main 1637 1600 P_____________ WP381994 5.95011 164.050 15 -1 11 275
1994345N06165 1994 114 WP MM AXEL 1994-12-11 00:00:00 NR 6.00000 163.500 main 1600 1568 O_____________ jtwc_wp WP381994 6.00000 163.500 15 -1 11 275
1994345N06165 1994 114 WP MM AXEL 1994-12-11 03:00:00 NR 6.04994 162.950 main 1568 1541 P_____________ WP381994 6.04994 162.950 15 -1 11 275
1994345N06165 1994 114 WP MM AXEL 1994-12-11 06:00:00 NR 6.10000 162.400 main 1541 1509 O_____________ jtwc_wp WP381994 6.10000 162.400 15 -1 11 275
1994345N06165 1994 114 WP MM AXEL 1994-12-11 09:00:00 NR 6.14994 161.850 main 1502 1474 P_____________ WP381994 6.14994 161.850 17 -1 11 275
1994345N06165 1994 114 WP MM AXEL 1994-12-11 12:00:00 NR 6.20000 161.300 main 1474 1439 O_____________ jtwc_wp WP381994 6.20000 161.300 20 -1 11 275
1994345N06165 1994 114 WP MM AXEL 1994-12-11 15:00:00 NR 6.24994 160.750 main 1439 1408 P_____________ WP381994 6.24994 160.750 20 -1 11 275
1994345N06165 1994 114 WP MM AXEL 1994-12-11 18:00:00 NR 6.30000 160.200 main 1408 1374 O_____________ jtwc_wp WP381994 6.30000 160.200 20 -1 11 275
1994345N06165 1994 114 WP MM AXEL 1994-12-11 21:00:00 NR 6.34997 159.643 main 1367 1343 P_____________ WP381994 6.34997 159.643 20 -1 11 275
1994345N06165 1994 114 WP MM AXEL 1994-12-12 00:00:00 NR 6.40000 159.100 main 1343 1311 O_____________ jtwc_wp WP381994 6.40000 159.100 20 -1 11 275
1994345N06165 1994 114 WP MM AXEL 1994-12-12 03:00:00 NR 6.44993 158.592 main 1311 1290 P_____________ WP381994 6.44993 158.592 20 -1 10 276
1994345N06165 1994 114 WP MM AXEL 1994-12-12 06:00:00 NR 6.50000 158.100 main 1290 1262 O_____________ jtwc_wp WP381994 6.50000 158.100 20 -1 10 276
1994345N06165 1994 114 WP MM AXEL 1994-12-12 09:00:00 NR 6.54995 157.600 main 1262 1242 P_____________ WP381994 6.54995 157.600 20 -1 10 276
1994345N06165 1994 114 WP MM AXEL 1994-12-12 12:00:00 NR 6.60000 157.100 main 1242 1225 O_____________ jtwc_wp WP381994 6.60000 157.100 XX 20 -5 10 278
1994345N06165 1994 114 WP MM AXEL 1994-12-12 15:00:00 NR 6.69495 156.600 main 1225 1201 P_____________ WP381994 6.69495 156.600 XX 22 -5 10 276
1994345N06165 1994 114 WP MM AXEL 1994-12-12 18:00:00 NR 6.70000 156.100 main 1201 1155 O_____________ jtwc_wp WP381994 6.70000 156.100 XX 25 -5 10 257
1994345N06165 1994 114 WP MM AXEL 1994-12-12 21:00:00 NR 6.46497 155.592 main 1155 1101 P_____________ WP381994 6.46497 155.592 XX 25 -5 11 243
1994345N06165 1994 114 WP MM AXEL 1994-12-13 00:00:00 NR 6.20000 155.100 main 1101 1072 O_____________ jtwc_wp WP381994 6.20000 155.100 XX 25 -5 10 250
1994345N06165 1994 114 WP MM AXEL 1994-12-13 03:00:00 NR 6.11244 154.643 main 1068 1052 P_____________ WP381994 6.11244 154.643 XX 25 -5 9 264
1994345N06165 1994 114 WP MM AXEL 1994-12-13 06:00:00 NR 6.10000 154.200 main 1052 1037 O_____________ jtwc_wp WP381994 6.10000 154.200 XX 25 -5 9 269
1994345N06165 1994 114 WP MM AXEL 1994-12-13 09:00:00 NR 6.09996 153.750 main 1037 1021 P_____________ WP381994 6.09996 153.750 XX 25 -5 9 270
1994345N06165 1994 114 WP MM AXEL 1994-12-13 12:00:00 NR 6.10000 153.300 main 1021 1010 O_____________ jtwc_wp WP381994 6.10000 153.300 XX 25 -5 9 267
1994345N06165 1994 114 WP MM AXEL 1994-12-13 15:00:00 NR 6.04996 152.850 main 997 989 P_____________ WP381994 6.04996 152.850 XX 25 -5 9 264
1994345N06165 1994 114 WP MM AXEL 1994-12-13 18:00:00 NR 6.00000 152.400 main 989 982 O_____________ jtwc_wp WP381994 6.00000 152.400 XX 25 -5 9 266
1994345N06165 1994 114 WP MM AXEL 1994-12-13 21:00:00 NR 5.98496 151.950 main 982 977 P_____________ WP381994 5.98496 151.950 XX 25 -5 9 270
1994345N06165 1994 114 WP MM AXEL 1994-12-14 00:00:00 NR 6.00000 151.500 main 977 975 O_____________ jtwc_wp WP381994 6.00000 151.500 XX 25 -5 9 274
1994345N06165 1994 114 WP MM AXEL 1994-12-14 03:00:00 NR 6.04248 151.043 main 975 975 P_____________ WP381994 6.04248 151.043 XX 25 -5 9 276
1994345N06165 1994 114 WP MM AXEL 1994-12-14 06:00:00 NR 6.10000 150.600 main 985 970 O_____________ jtwc_wp WP381994 6.10000 150.600 XX 25 -5 9 277
1994345N06165 1994 114 WP MM AXEL 1994-12-14 09:00:00 NR 6.14245 150.192 main 970 966 P_____________ WP381994 6.14245 150.192 XX 25 -5 8 277
1994345N06165 1994 114 WP MM AXEL 1994-12-14 12:00:00 NR 6.20000 149.800 main 967 961 O_____________ jtwc_wp WP381994 6.20000 149.800 XX 25 -5 8 280
1994345N06165 1994 114 WP MM AXEL 1994-12-14 15:00:00 NR 6.28497 149.400 main 967 962 P_____________ WP381994 6.28497 149.400 XX 25 -5 8 284
1994345N06165 1994 114 WP MM AXEL 1994-12-14 18:00:00 NR 6.40000 149.000 main 968 967 O_____________ jtwc_wp WP381994 6.40000 149.000 XX 25 -5 8 288
1994345N06165 1994 114 WP MM AXEL 1994-12-14 21:00:00 NR 6.54997 148.600 main 972 972 P_____________ WP381994 6.54997 148.600 XX 25 -5 9 291
1994345N06165 1994 114 WP MM AXEL 1994-12-15 00:00:00 NR 6.70000 148.200 main 990 988 O_____________ jtwc_wp WP381994 6.70000 148.200 XX 25 -5 8 288
1994345N06165 1994 114 WP MM AXEL 1994-12-15 03:00:00 NR 6.80747 147.800 main 998 997 P_____________ WP381994 6.80747 147.800 XX 27 -5 8 284
1994345N06165 1994 114 WP MM AXEL 1994-12-15 06:00:00 NR 6.90000 147.400 main 1008 1008 O_____________ jtwc_wp WP381994 6.90000 147.400 XX 30 -5 8 283
1994345N06165 1994 114 WP MM AXEL 1994-12-15 09:00:00 NR 6.98497 147.000 main 1019 1019 P_____________ WP381994 6.98497 147.000 XX 30 -5 8 284
1994345N06165 1994 114 WP MM AXEL 1994-12-15 12:00:00 NR 7.10000 146.600 main 1030 1030 O_____________ jtwc_wp WP381994 7.10000 146.600 XX 30 -5 8 291
1994345N06165 1994 114 WP MM AXEL 1994-12-15 15:00:00 NR 7.29244 146.208 main 1054 1053 P_____________ WP381994 7.29244 146.208 XX 30 -5 4 302
1994345N06165 1994 114 WP MM AXEL 1994-12-15 18:00:00 TS 7.28571 146.300 1002 tokyo main 1053 1053 OOOO__________ jtwc_wp WP381994 7.50000 145.800 XX 30 -5 7.00000 147.000 2 1002 0 0 0 7.00000 147.000 1 29 1002 7.00000 146.900 TD 25 1002 1 285
1994345N06165 1994 114 WP MM AXEL 1994-12-15 21:00:00 TS 7.32553 146.090 main 1054 1054 PPPP__________ WP381994 7.66498 145.357 XX 30 -5 7.10506 146.615 2 1002 0 0 7.09006 146.615 1 29 1002 7.10258 146.505 TD 27 1001 5 281
1994345N06165 1994 114 WP MM AXEL 1994-12-16 00:00:00 TS 7.38461 145.777 1002 tokyo main 1068 1068 OOOO__________ jtwc_wp WP381994 7.80000 144.900 30 -1 7.20000 146.200 2 1002 0 0 0 7.20000 146.200 1 29 1002 7.20000 146.100 TD 30 1000 7 281
1994345N06165 1994 114 WP MM AXEL 1994-12-16 03:00:00 TS 7.45494 145.396 main 1083 1083 PPPP__________ WP381994 7.89995 144.450 30 -1 7.28494 145.730 2 1002 0 0 7.34244 145.730 1 29 1002 7.29243 145.672 TD 30 1000 9 282
1994345N06165 1994 114 WP MM AXEL 1994-12-16 06:00:00 TS 7.57500 144.900 1002 tokyo main 1103 1103 OOOO__________ jtwc_wp WP381994 8.00000 144.000 30 -1 7.40000 145.200 2 1002 0 0 0 7.50000 145.200 1 29 1002 7.40000 145.200 TD 30 1000 11 285
1994345N06165 1994 114 WP MM AXEL 1994-12-16 09:00:00 TS 7.72623 144.359 main 1125 1125 PPPP__________ WP381994 8.14245 143.550 32 -1 7.58501 144.608 2 1002 0 0 7.64251 144.607 1 29 1001 7.53495 144.672 TD 30 1000 11 287
1994345N06165 1994 114 WP MM AXEL 1994-12-16 12:00:00 TS 7.90000 143.800 1002 tokyo main 1162 1162 OOOO__________ jtwc_wp WP381994 8.30000 143.100 35 -1 7.80000 144.000 2 1002 0 0 0 7.80000 144.000 1 29 1000 7.70000 144.100 TD 30 1000 11 288
1994345N06165 1994 114 WP MM AXEL 1994-12-16 15:00:00 TS 8.08366 143.262 main 1200 1200 PPPP__________ WP381994 8.44997 142.642 35 -1 7.99987 143.450 2 1002 0 0 7.99237 143.450 1 29 1000 7.89245 143.507 TD 30 1000 11 289
1994345N06165 1994 114 WP MM AXEL 1994-12-16 18:00:00 TS 8.27500 142.725 1002 tokyo main 1215 1205 OOOO__________ jtwc_wp WP381994 8.60000 142.200 35 -1 8.20000 142.900 2 1002 0 0 0 8.20000 142.900 1 29 1000 8.10000 142.900 TD 30 1000 12 289
1994345N06165 1994 114 WP MM AXEL 1994-12-16 21:00:00 TS 8.46247 142.167 main 1215 1203 PPPP__________ WP381994 8.74993 141.792 37 -1 8.39998 142.300 2 1001 0 0 8.40004 142.285 1 33 999 8.29994 142.292 TD 32 998 12 289
1994345N06165 1994 114 WP MM AXEL 1994-12-17 00:00:00 TS 8.65000 141.625 35 1000 tokyo main 1214 1203 OOOO__________ jtwc_wp WP381994 8.90000 141.400 40 -1 8.60000 141.700 3 35 1000 0 9 120 120 0 8.60000 141.700 2 38 998 8.50000 141.700 TS 35 996 11 290
1994345N06165 1994 114 WP MM AXEL 1994-12-17 03:00:00 TS 8.83739 141.130 main 1208 1208 PPPP__________ WP381994 9.04996 141.000 40 -1 8.79992 141.135 3 35 999 0 9 120 120 8.79977 141.250 2 38 998 8.69992 141.135 TS 35 996 10 291
1994345N06165 1994 114 WP MM AXEL 1994-12-17 06:00:00 TS 9.02500 140.650 35 998 tokyo main 1219 1211 OOOO__________ jtwc_wp WP381994 9.20000 140.600 40 -1 9.00000 140.600 3 35 998 0 9 120 120 0 9.00000 140.800 2 38 998 8.90000 140.600 TS 35 996 10 291
1994345N06165 1994 114 WP MM AXEL 1994-12-17 09:00:00 TS 9.21997 140.144 main 1213 1211 PPPP__________ WP381994 9.34996 140.200 42 -1 9.20740 140.092 3 35 998 0 9 120 120 9.21507 140.208 2 38 998 9.10746 140.077 TS 37 994 11 291
1994345N06165 1994 114 WP MM AXEL 1994-12-17 12:00:00 TS 9.40000 139.650 35 998 tokyo main 1218 1210 OOOO__________ jtwc_wp WP381994 9.50000 139.800 45 -1 9.40000 139.600 3 35 998 0 9 120 120 0 9.40000 139.600 2 38 998 9.30000 139.600 TS 40 992 10 289
1994345N06165 1994 114 WP MM AXEL 1994-12-17 15:00:00 TS 9.54121 139.179 main 1210 1207 PPPP__________ WP381994 9.64995 139.400 45 -1 9.55754 139.070 3 37 997 0 9 135 135 9.50744 139.062 2 38 997 9.44990 139.185 TS 42 991 9 287
1994345N06165 1994 114 WP MM AXEL 1994-12-17 18:00:00 TS 9.67500 138.750 40 996 tokyo main 1218 1211 OOOO__________ jtwc_wp WP381994 9.80000 139.000 45 -1 9.70000 138.600 3 40 996 0 9 150 150 0 9.60000 138.600 2 38 996 9.60000 138.800 TS 45 990 8 290
1994345N06165 1994 114 WP MM AXEL 1994-12-17 21:00:00 TS 9.83178 138.380 main 1216 1213 PPPP__________ WP381994 9.94995 138.600 47 -1 9.84233 138.285 3 40 995 0 9 165 150 9.73486 138.235 2 38 995 9.79995 138.400 TS 45 990 8 294
1994345N06165 1994 114 WP MM AXEL 1994-12-18 00:00:00 TS 10.0000 138.025 40 994 tokyo main 1228 1225 OOOO__________ jtwc_wp WP381994 10.1000 138.200 50 -1 10.0000 138.000 3 40 994 0 8 180 150 0 9.90000 137.900 2 38 994 10.0000 138.000 TS 45 990 8 295
1994345N06165 1994 114 WP MM AXEL 1994-12-18 03:00:00 TS 10.1731 137.632 main 1241 1200 PPPP__________ WP381994 10.2500 137.800 52 -1 10.1925 137.622 3 42 993 0 8 195 150 10.0925 137.507 2 43 992 10.1575 137.600 TS 45 990 9 294
1994345N06165 1994 114 WP MM AXEL 1994-12-18 06:00:00 TS 10.3500 137.225 45 992 tokyo main 1203 1163 OOOO__________ jtwc_wp WP381994 10.4000 137.400 55 -1 10.4000 137.200 3 45 992 0 8 210 150 0 10.3000 137.100 3 48 990 10.3000 137.200 TS 45 990 9 294
1994345N06165 1994 114 WP MM AXEL 1994-12-18 09:00:00 TS 10.5287 136.807 main 1163 1127 PPPP__________ WP381994 10.5499 137.007 57 -1 10.6151 136.735 3 47 991 0 8 225 150 10.5075 136.685 3 53 985 10.4425 136.800 TS 47 987 9 293
1994345N06165 1994 114 WP MM AXEL 1994-12-18 12:00:00 TS 10.7000 136.400 50 990 tokyo main 1127 1097 OOOO__________ jtwc_wp WP381994 10.7000 136.600 60 -1 10.8000 136.300 4 50 990 0 8 240 150 0 10.7000 136.300 3 58 980 10.6000 136.400 STS 50 985 8 293
1994345N06165 1994 114 WP MM AXEL 1994-12-18 15:00:00 TS 10.8555 136.037 main 1089 1059 PPPP__________ WP381994 10.8574 136.165 62 -1 10.9074 135.985 4 52 987 0 8 255 165 10.8574 136.000 3 63 977 10.7999 136.000 STS 52 982 8 293
1994345N06165 1994 114 WP MM AXEL 1994-12-18 18:00:00 TS 11.0000 135.675 55 985 tokyo main 1059 1019 OOOO__________ jtwc_wp WP381994 11.0000 135.700 65 -1 11.0000 135.700 4 55 985 9 40 40 8 270 180 0 11.0000 135.700 4 68 975 11.0000 135.600 STS 55 980 8 292
1994345N06165 1994 114 WP MM AXEL 1994-12-18 21:00:00 TS 11.1524 135.283 main 1021 981 PPPP__________ WP381994 11.1150 135.207 67 -1 11.1574 135.388 4 55 985 9 40 40 8 270 180 11.1649 135.330 4 68 972 11.1724 135.208 STS 57 977 9 289
1994345N06165 1994 114 WP MM AXEL 1994-12-19 00:00:00 TS 11.2750 134.850 55 985 tokyo main 981 928 OOOO__________ jtwc_wp WP381994 11.2000 134.700 70 -1 11.3000 135.000 4 55 985 9 40 40 8 270 180 0 11.3000 134.900 4 68 970 11.3000 134.800 STS 60 975 9 282
1994345N06165 1994 114 WP MM AXEL 1994-12-19 03:00:00 TS 11.3455 134.374 main 928 878 PPPP__________ WP381994 11.2649 134.207 72 -1 11.3725 134.487 4 57 982 9 45 45 8 270 180 11.3724 134.437 4 68 970 11.3724 134.365 STS 62 972 10 276
1994345N06165 1994 114 WP MM AXEL 1994-12-19 06:00:00 TS 11.3750 133.850 60 980 tokyo main 867 815 OOOO__________ jtwc_wp WP381994 11.3000 133.700 75 -1 11.4000 133.900 4 60 980 9 50 50 8 270 180 0 11.4000 133.900 4 68 970 11.4000 133.900 T 65 970 11 273
1994345N06165 1994 114 WP MM AXEL 1994-12-19 09:00:00 TS 11.3938 133.277 main 815 753 PPPP__________ WP381994 11.3149 133.158 77 -1 11.4225 133.293 4 60 980 9 50 50 8 270 180 11.4227 133.243 4 68 970 11.4149 133.415 T 67 967 11 270
1994345N06165 1994 114 WP MM AXEL 1994-12-19 12:00:00 TS 11.3750 132.700 60 980 tokyo main 753 697 OOOO__________ jtwc_wp WP381994 11.3000 132.600 80 -1 11.4000 132.700 4 60 980 9 50 50 8 270 180 0 11.4000 132.600 4 68 970 11.4000 132.900 T 70 965 11 265
1994345N06165 1994 114 WP MM AXEL 1994-12-19 15:00:00 TS 11.3074 132.178 main 697 642 PPPP__________ WP381994 11.2574 132.042 82 -1 11.3073 132.185 4 62 977 9 55 55 8 270 180 11.3072 132.127 4 68 970 11.3574 132.357 T 72 962 10 262
1994345N06165 1994 114 WP MM AXEL 1994-12-19 18:00:00 TS 11.2250 131.675 65 975 tokyo main 642 590 OOOO__________ jtwc_wp WP381994 11.2000 131.500 85 -1 11.2000 131.700 5 65 975 9 60 60 8 270 180 0 11.2000 131.700 4 68 970 11.3000 131.800 T 75 960 10 262
1994345N06165 1994 114 WP MM AXEL 1994-12-19 21:00:00 TS 11.1599 131.166 main 590 535 PPPP__________ WP381994 11.1424 130.992 87 -1 11.1274 131.207 5 65 975 9 60 60 8 270 180 11.1274 131.215 4 72 967 11.2424 131.250 T 75 960 10 264
1994345N06165 1994 114 WP MM AXEL 1994-12-20 00:00:00 TS 11.1250 130.650 65 975 tokyo main 535 469 OOOO__________ jtwc_wp WP381994 11.1000 130.500 90 -1 11.1000 130.700 5 65 975 9 60 60 7 270 180 0 11.1000 130.700 4 77 965 11.2000 130.700 T 75 960 10 269
1994345N06165 1994 114 WP MM AXEL 1994-12-20 03:00:00 TS 11.1387 130.111 main 469 415 PPPP__________ WP381994 11.0924 130.000 95 -1 11.1350 130.150 5 67 972 9 65 65 7 285 195 11.1350 130.150 4 77 965 11.1924 130.143 T 77 957 11 273
1994345N06165 1994 114 WP MM AXEL 1994-12-20 06:00:00 TS 11.1750 129.575 70 970 tokyo main 415 361 OOOO__________ jtwc_wp WP381994 11.1000 129.500 100 -1 11.2000 129.600 5 70 970 9 70 70 7 300 210 0 11.2000 129.600 4 77 965 11.2000 129.600 T 80 955 10 274
1994345N06165 1994 114 WP MM AXEL 1994-12-20 09:00:00 TS 11.2093 129.071 main 361 306 PPPP__________ WP381994 11.1075 128.993 107 -1 11.2648 129.100 5 75 965 9 75 75 7 300 225 11.2648 129.100 4 82 960 11.1999 129.093 T 82 952 10 273
1994345N06165 1994 114 WP MM AXEL 1994-12-20 12:00:00 TS 11.2250 128.575 80 960 tokyo main 306 252 OOOO__________ jtwc_wp WP381994 11.1000 128.500 115 -1 11.3000 128.600 5 80 960 9 80 80 7 300 240 0 11.3000 128.600 5 87 955 11.2000 128.600 ST 85 950 10 270
1994345N06165 1994 114 WP MM AXEL 1994-12-20 15:00:00 TS 11.2100 128.046 main 241 197 PPPP__________ WP381994 11.0574 128.042 115 -1 11.2801 128.027 5 82 955 9 85 85 7 285 255 11.2801 128.027 5 87 952 11.2225 128.085 ST 85 950 10 266
1994345N06165 1994 114 WP MM AXEL 1994-12-20 18:00:00 TS 11.1500 127.550 85 950 tokyo main 197 152 OOOO__________ jtwc_wp WP381994 11.0000 127.600 115 -1 11.2000 127.500 5 85 950 9 90 90 9 270 270 0 11.2000 127.500 5 87 950 11.2000 127.600 ST 85 950 9 258
1994345N06165 1994 114 WP MM AXEL 1994-12-20 21:00:00 TS 11.0286 127.146 main 142 109 PPPP__________ WP381994 10.9500 127.143 110 -1 11.0498 127.127 5 85 952 9 90 90 9 270 270 11.0498 127.127 5 92 947 11.0649 127.185 ST 85 950 8 252
1994345N06165 1994 114 WP MM AXEL 1994-12-21 00:00:00 TS 10.9000 126.775 85 955 tokyo main 109 69 OOOO__________ jtwc_wp WP381994 10.9000 126.700 105 -1 10.9000 126.800 5 85 955 9 90 90 9 270 270 0 10.9000 126.800 5 97 945 10.9000 126.800 ST 85 950 8 254
1994345N06165 1994 114 WP MM AXEL 1994-12-21 03:00:00 TS 10.8112 126.371 main 69 31 PPPP__________ WP381994 10.8349 126.292 100 -1 10.8275 126.400 5 82 957 9 85 85 9 255 255 10.8200 126.400 5 97 945 10.7625 126.392 ST 82 952 8 261
1994345N06165 1994 114 WP MM AXEL 1994-12-21 06:00:00 TS 10.7750 125.975 80 960 tokyo main 31 22 OOOO__________ jtwc_wp WP381994 10.8000 125.900 95 -1 10.8000 126.000 5 80 960 9 80 80 9 240 240 0 10.8000 126.000 5 97 945 10.7000 126.000 T 80 955 7 269
1994345N06165 1994 114 WP MM AXEL 1994-12-21 09:00:00 TS 10.7930 125.614 main 31 22 PPPP__________ WP381994 10.8199 125.507 90 -1 10.7624 125.650 5 77 962 9 75 75 9 225 225 10.8199 125.650 5 87 952 10.7699 125.650 T 77 957 7 278
1994345N06165 1994 114 WP MM AXEL 1994-12-21 12:00:00 TS 10.8750 125.250 75 965 tokyo main 22 0 OOOO__________ jtwc_wp WP381994 10.9000 125.100 85 -1 10.8000 125.300 5 75 965 9 70 70 9 210 210 0 10.9000 125.300 4 77 960 10.9000 125.300 T 75 960 8 286
1994345N06165 1994 114 WP MM AXEL 1994-12-21 15:00:00 TS 11.0005 124.864 main 0 0 PPPP__________ WP381994 11.0349 124.665 80 -1 10.9624 124.930 5 70 970 9 65 65 9 195 195 11.0199 124.930 4 77 962 10.9849 124.930 T 72 962 9 290
1994345N06165 1994 114 WP MM AXEL 1994-12-21 18:00:00 TS 11.1750 124.425 65 975 tokyo main 0 0 OOOO__________ jtwc_wp WP381994 11.2000 124.200 75 -1 11.2000 124.500 5 65 975 9 60 60 9 180 180 0 11.2000 124.500 4 77 965 11.1000 124.500 T 70 965 10 292
1994345N06165 1994 114 WP MM AXEL 1994-12-21 21:00:00 TS 11.3837 123.919 main 22 22 PPPP__________ WP381994 11.3424 123.715 72 -1 11.4574 123.988 5 62 977 9 50 50 9 165 165 11.4499 123.988 4 72 967 11.2849 123.987 T 67 967 11 292
1994345N06165 1994 114 WP MM AXEL 1994-12-22 00:00:00 TS 11.6000 123.350 60 980 tokyo main 34 15 OOOO__________ jtwc_wp WP381994 11.5000 123.200 70 -1 11.7000 123.400 4 60 980 9 40 40 9 150 150 0 11.7000 123.400 4 68 970 11.5000 123.400 T 65 970 12 289
1994345N06165 1994 114 WP MM AXEL 1994-12-22 03:00:00 TS 11.7731 122.736 main 31 11 PPPP__________ WP381994 11.6924 122.657 67 -1 11.8575 122.757 4 57 982 9 35 35 9 150 150 11.8424 122.765 4 63 975 11.6999 122.765 T 62 972 13 286
1994345N06165 1994 114 WP MM AXEL 1994-12-22 06:00:00 TS 11.9500 122.100 55 985 tokyo main 22 11 OOOO__________ jtwc_wp WP381994 11.9000 122.100 65 -1 12.0000 122.100 4 55 985 9 30 30 9 150 150 0 12.0000 122.100 3 58 980 11.9000 122.100 STS 60 975 13 288
1994345N06165 1994 114 WP MM AXEL 1994-12-22 09:00:00 TS 12.1749 121.480 main 15 0 PPPP__________ WP381994 12.0999 121.542 65 -1 12.1923 121.500 4 52 987 9 9 135 135 12.3074 121.443 3 58 980 12.0999 121.435 STS 55 980 13 291
1994345N06165 1994 114 WP MM AXEL 1994-12-22 12:00:00 TS 12.4000 120.875 50 990 tokyo main 10 10 OOOO__________ jtwc_wp WP381994 12.3000 121.000 65 -1 12.4000 120.900 4 50 990 0 9 120 120 0 12.6000 120.800 3 58 980 12.3000 120.800 STS 50 985 12 289
1994345N06165 1994 114 WP MM AXEL 1994-12-22 15:00:00 TS 12.5787 120.272 main 55 55 PPPP__________ WP381994 12.4924 120.492 62 -1 12.6077 120.213 4 50 990 0 9 120 120 12.7225 120.155 3 58 982 12.4923 120.227 STS 50 985 12 287
1994345N06165 1994 114 WP MM AXEL 1994-12-22 18:00:00 TS 12.7500 119.725 50 990 tokyo main 93 93 OOOO__________ jtwc_wp WP381994 12.7000 120.000 60 -1 12.8000 119.600 4 50 990 0 9 120 120 0 12.8000 119.600 3 58 985 12.7000 119.700 STS 50 985 10 290
1994345N06165 1994 114 WP MM AXEL 1994-12-22 21:00:00 TS 12.9273 119.272 main 121 121 PPPP__________ WP381994 12.9424 119.492 60 -1 12.9272 119.205 4 47 991 0 9 120 120 12.9047 119.220 3 53 985 12.9350 119.170 STS 50 985 9 296
1994345N06165 1994 114 WP MM AXEL 1994-12-23 00:00:00 TS 13.1500 118.875 45 992 tokyo main 153 153 OOOO__________ jtwc_wp WP381994 13.2000 119.000 60 -1 13.1000 118.900 3 45 992 0 9 120 120 0 13.1000 118.900 3 48 985 13.2000 118.700 STS 50 985 9 304
1994345N06165 1994 114 WP MM AXEL 1994-12-23 03:00:00 TS 13.4600 118.473 main 195 195 PPPP__________ WP381994 13.4425 118.527 60 -1 13.4275 118.550 3 45 992 0 9 120 120 13.4775 118.493 3 48 985 13.4924 118.320 STS 50 985 10 311
1994345N06165 1994 114 WP MM AXEL 1994-12-23 06:00:00 TS 13.8000 118.100 45 992 tokyo main 242 242 OOOO__________ jtwc_wp WP381994 13.7000 118.100 60 -1 13.8000 118.200 3 45 992 0 9 120 120 0 13.9000 118.100 3 48 985 13.8000 118.000 STS 50 985 10 313
1994345N06165 1994 114 WP MM AXEL 1994-12-23 09:00:00 TS 14.1056 117.760 main 259 259 PPPP__________ WP381994 13.9849 117.720 62 -1 14.1150 117.842 3 45 992 0 9 120 120 14.2224 117.785 3 48 987 14.0999 117.692 STS 50 985 9 314
1994345N06165 1994 114 WP MM AXEL 1994-12-23 12:00:00 TS 14.4000 117.450 45 992 tokyo main 281 281 OOOO__________ jtwc_wp WP381994 14.3000 117.400 65 -1 14.4000 117.500 3 45 992 0 9 120 120 0 14.5000 117.500 3 48 990 14.4000 117.400 STS 50 985 8 314
1994345N06165 1994 114 WP MM AXEL 1994-12-23 15:00:00 TS 14.6781 117.144 main 310 308 PPPP__________ WP381994 14.6425 117.120 65 -1 14.6425 117.177 3 45 993 0 9 120 120 14.7350 117.185 3 43 990 14.6925 117.092 STS 47 987 8 316
1994345N06165 1994 114 WP MM AXEL 1994-12-23 18:00:00 TS 14.9750 116.875 45 994 tokyo main 320 320 OOOO__________ jtwc_wp WP381994 15.0000 116.900 65 -1 14.9000 116.900 3 45 994 0 9 120 120 0 15.0000 116.900 2 38 990 15.0000 116.800 TS 45 990 8 325
1994345N06165 1994 114 WP MM AXEL 1994-12-23 21:00:00 TS 15.3356 116.667 main 330 328 PPPP__________ WP381994 15.3499 116.742 62 -1 15.2499 116.692 3 42 995 0 9 120 120 15.3924 116.692 2 38 990 15.3499 116.542 TS 45 990 8 332
1994345N06165 1994 114 WP MM AXEL 1994-12-24 00:00:00 TS 15.7000 116.475 40 996 tokyo main 344 344 OOOO__________ jtwc_wp WP381994 15.7000 116.600 60 -1 15.6000 116.500 3 40 996 0 9 120 120 0 15.8000 116.500 2 38 990 15.7000 116.300 TS 45 990 8 329
1994345N06165 1994 114 WP MM AXEL 1994-12-24 03:00:00 TS 16.0188 116.236 main 374 374 PPPP__________ WP381994 16.0575 116.407 55 -1 15.8650 116.250 3 37 997 0 9 120 120 16.1376 116.235 2 38 992 16.0150 116.050 TS 42 992 8 323
1994345N06165 1994 114 WP MM AXEL 1994-12-24 06:00:00 TS 16.3000 116.000 35 998 tokyo main 396 396 OOOO__________ jtwc_wp WP381994 16.4000 116.200 50 -1 16.1000 116.000 3 35 998 0 9 120 120 0 16.4000 116.000 2 38 995 16.3000 115.800 TS 40 994 7 323
1994345N06165 1994 114 WP MM AXEL 1994-12-24 09:00:00 TS 16.5468 115.812 main 420 420 PPPP__________ WP381994 16.7150 116.007 47 -1 16.3574 115.800 3 35 999 0 9 120 120 16.5574 115.900 2 38 995 16.5575 115.542 TS 37 996 6 323
1994345N06165 1994 114 WP MM AXEL 1994-12-24 12:00:00 TS 16.7750 115.625 35 1000 tokyo main 446 446 OOOO__________ jtwc_wp WP381994 17.0000 115.800 45 -1 16.6000 115.600 3 35 1000 0 9 120 120 0 16.7000 115.800 2 38 995 16.8000 115.300 TS 35 998 6 318
1994345N06165 1994 114 WP MM AXEL 1994-12-24 15:00:00 TS 17.0032 115.380 main 472 472 PPPP__________ WP381994 17.2650 115.543 42 -1 16.7775 115.342 3 1001 0 9 16.9276 115.565 2 38 995 17.0425 115.070 TS 32 1000 7 316
1994345N06165 1994 114 WP MM AXEL 1994-12-24 18:00:00 TS 17.2500 115.150 1002 tokyo main 501 482 OOOO__________ jtwc_wp WP381994 17.5000 115.300 40 -1 17.0000 115.100 2 1002 0 0 0 17.2000 115.300 2 38 995 17.3000 114.900 TD 30 1002 7 325
1994345N06165 1994 114 WP MM AXEL 1994-12-24 21:00:00 TS 17.5481 114.973 main 482 457 PPPP__________ WP381994 17.7075 115.120 37 -1 17.4000 114.898 2 1003 0 0 17.4925 115.063 2 38 996 17.5925 114.812 TD 30 1002 7 336
1994345N06165 1994 114 WP MM AXEL 1994-12-25 00:00:00 TS 17.8500 114.875 1004 tokyo main 452 443 OOOO__________ jtwc_wp WP381994 17.9000 115.000 35 -1 17.8000 114.800 2 1004 0 0 0 17.8000 114.900 2 38 998 17.9000 114.800 TD 30 1002 6 349
1994345N06165 1994 114 WP MM AXEL 1994-12-25 03:00:00 TS 18.1131 114.859 main 443 435 PPPP__________ WP381994 18.1075 114.913 32 -1 18.0375 114.855 2 1004 0 0 18.1000 114.855 2 38 998 18.2075 114.813 TD 30 1002 5 5
1994345N06165 1994 114 WP MM AXEL 1994-12-25 06:00:00 TS 18.3500 114.925 1004 tokyo main 431 420 OOOO__________ jtwc_wp WP381994 18.3000 114.900 30 -1 18.2000 115.000 2 1004 0 0 0 18.4000 114.900 2 38 998 18.5000 114.900 TD 30 1002 5 20
1994345N06165 1994 114 WP MM AXEL 1994-12-25 09:00:00 TS 18.5813 115.042 main 420 402 PPPP__________ WP381994 18.4650 114.970 27 -1 18.3650 115.150 2 1005 0 0 18.7150 114.963 2 38 998 18.7801 115.085 TD 27 1004 5 31
1994345N06165 1994 114 WP MM AXEL 1994-12-25 12:00:00 TS 18.7750 115.200 1006 tokyo main 402 394 OOOO__________ jtwc_wp WP381994 18.6000 115.100 25 -1 18.5000 115.300 2 1006 0 0 0 19.0000 115.100 2 38 998 19.0000 115.300 TD 25 1006 5 40
1994345N06165 1994 114 WP MM AXEL 1994-12-25 15:00:00 TS 18.9375 115.361 main 397 386 PPPP__________ WP381994 18.7150 115.235 25 -1 18.6075 115.400 2 1006 0 0 19.2826 115.342 2 38 998 19.1450 115.465 TD 25 1006 4 51
1994345N06165 1994 114 WP MM AXEL 1994-12-25 18:00:00 TS 19.0250 115.525 1006 tokyo main 389 389 OOOO__________ jtwc_wp WP381994 18.8000 115.400 25 -1 18.7000 115.500 2 1006 0 0 0 19.4000 115.600 2 38 998 19.2000 115.600 TD 25 1006 3 77
1994345N06165 1994 114 WP MM AXEL 1994-12-25 21:00:00 TS 19.0081 115.683 main 396 396 PPPP__________ WP381994 18.8575 115.593 25 -1 18.8075 115.650 2 1007 0 0 19.1950 115.773 2 33 998 19.1725 115.715 TD 25 1006 3 105
1994345N06165 1994 114 WP MM AXEL 1994-12-26 00:00:00 TS 18.9500 115.825 1008 tokyo main 400 411 OOOO__________ jtwc_wp WP381994 18.9000 115.800 25 -1 18.9000 115.800 2 1008 0 0 0 18.9000 115.900 1 29 998 19.1000 115.800 TD 25 1006 3 108
1994345N06165 1994 114 WP MM AXEL 1994-12-26 03:00:00 TS 18.9300 115.945 main 415 415 PPPP__________ WP381994 18.9500 116.000 22 -1 18.9800 115.900 2 1008 0 0 18.7250 116.015 1 29 998 19.0650 115.865 TD 25 1006 2 98
1994345N06165 1994 114 WP MM AXEL 1994-12-26 06:00:00 TS 18.9200 116.040 1008 tokyo main 418 418 OOOO__________ jtwc_wp WP381994 19.0000 116.200 20 -1 19.0000 116.000 2 1008 0 0 0 18.7000 116.100 1 29 998 19.0000 115.900 TD 25 1006 2 89
1994345N06165 1994 114 WP MM AXEL 1994-12-26 09:00:00 TS 18.9343 116.121 main 421 421 PPPP__________ WP381994 19.0500 116.400 20 -1 18.9375 116.143 2 1009 0 0 18.9350 116.165 1 29 998 18.8725 115.915 TD 25 1006 1 94
1994345N06165 1994 114 WP MM AXEL 1994-12-26 12:00:00 TS 18.9091 116.191 1010 tokyo main 424 424 OOOO__________ jtwc_wp WP381994 19.1000 116.600 20 -1 18.8000 116.300 2 1010 0 0 0 19.2000 116.200 1 29 998 18.7000 115.900 TD 25 1006 2 146
1994345N06165 1994 114 WP MM AXEL 1994-12-26 15:00:00 TS 18.7506 116.245 main 435 424 _PPP__________ WP381994 -1 18.6150 116.458 2 1010 0 0 19.2675 116.208 1 29 998 18.5050 115.857 TD 25 1006 4 153
1994345N06165 1994 114 WP MM AXEL 1994-12-26 18:00:00 TS 18.5167 116.400 1010 tokyo main 424 386 _OOO__________ -1 18.4000 116.600 2 1010 0 0 0 19.2000 116.200 1 29 998 18.3000 115.800 TD 25 1006 7 138
1994345N06165 1994 114 WP MM AXEL 1994-12-26 21:00:00 TS 18.2150 116.745 main 386 371 _P____________ -1 18.2150 116.745 2 1010 0 0 1 TD 6 144
1994345N06165 1994 114 WP MM AXEL 1994-12-27 00:00:00 TS 18.0000 116.800 1010 tokyo main 371 360 _O____________ -1 18.0000 116.800 2 1010 0 0 0 5 183
1994345N06165 1994 114 WP MM AXEL 1994-12-27 03:00:00 TS 17.7201 116.697 main 365 365 _P____________ -1 17.7201 116.697 2 1010 0 0 7 205
1994345N06165 1994 114 WP MM AXEL 1994-12-27 06:00:00 TS 17.4000 116.500 1010 tokyo main 372 _O____________ -1 17.4000 116.500 2 1010 0 0 0 7 210

Digital Typhoon Data and Search

About IBTrACS Database

This database is a web-friendly format of International Best Track Archive for Climate Stewardship (IBTrACS), a global best track data archive curated by NOAA dating back to 1842.

Updated: 2021-11-26